Big Bear Station Historical Data
Daily Summary for January 20, 2017 Units:  English    Metric   Both
« Previous Day
Next Day »
Daily Weekly Monthly Yearly Custom
  High: Low: Average:
Temperature: 31.6 °F 26.8 °F 28.9 °F
Dew Point: 31.3 °F 25.2 °F 28 °F
Humidity: 99 % 91 % 97 %
Wind Speed: 0.0 mph 0.0 mph 0 mph
Wind Gust: -999.0 mph - -
Wind:- - North
Pressure: 23.19 in 22.83 in -
Precipitation: 0.00 in    
Historical Graphs
 
 
Tabular Data for January 20, 2017
Time Temperature Dew Point Pressure Wind Wind Speed Wind Gust Humidity Rainfall Rate (Hourly)
00:03 28.8 °F 27.8 °F 23.19 in Calm   -999.0 mph 96 % 0 in
00:18 28.8 °F 27.8 °F 23.19 in Calm   -999.0 mph 96 % 0 in
00:33 28.8 °F 27.8 °F 23.18 in Calm   -999.0 mph 96 % 0 in
00:49 28.8 °F 27.8 °F 23.18 in Calm   -999.0 mph 96 % 0 in
01:04 28.8 °F 27.8 °F 23.18 in Calm   -999.0 mph 96 % 0 in
01:19 28.8 °F 28.1 °F 23.17 in Calm   -999.0 mph 97 % 0 in
01:34 28.9 °F 28.2 °F 23.17 in Calm   -999.0 mph 97 % 0 in
01:49 29.1 °F 28.4 °F 23.17 in Calm   -999.0 mph 97 % 0 in
02:05 29.3 °F 28.6 °F 23.16 in Calm   -999.0 mph 97 % 0 in
02:20 29.5 °F 28.8 °F 23.15 in Calm   -999.0 mph 97 % 0 in
02:35 29.5 °F 28.8 °F 23.16 in Calm   -999.0 mph 97 % 0 in
02:50 29.1 °F 28.4 °F 23.15 in Calm   -999.0 mph 97 % 0 in
03:06 29.1 °F 28.4 °F 23.15 in Calm   -999.0 mph 97 % 0 in
03:21 28.9 °F 28.2 °F 23.15 in Calm   -999.0 mph 97 % 0 in
03:36 28.8 °F 28.1 °F 23.14 in Calm   -999.0 mph 97 % 0 in
03:51 28.8 °F 28.1 °F 23.14 in Calm   -999.0 mph 97 % 0 in
04:06 28.8 °F 28.1 °F 23.12 in Calm   -999.0 mph 97 % 0 in
04:22 28.8 °F 27.8 °F 23.11 in Calm   -999.0 mph 96 % 0 in
04:37 28.6 °F 27.9 °F 23.11 in Calm   -999.0 mph 97 % 0 in
04:52 28.4 °F 27.7 °F 23.11 in Calm   -999.0 mph 97 % 0 in
05:07 28.4 °F 27.7 °F 23.11 in Calm   -999.0 mph 97 % 0 in
05:22 28.2 °F 27.5 °F 23.12 in Calm   -999.0 mph 97 % 0 in
05:38 28.0 °F 27.3 °F 23.10 in Calm   -999.0 mph 97 % 0 in
05:53 28.0 °F 27.3 °F 23.11 in Calm   -999.0 mph 97 % 0 in
06:08 27.7 °F 27.0 °F 23.11 in Calm   -999.0 mph 97 % 0 in
06:23 27.7 °F 27.0 °F 23.11 in Calm   -999.0 mph 97 % 0 in
06:38 27.5 °F 26.8 °F 23.09 in Calm   -999.0 mph 97 % 0 in
06:54 27.3 °F 26.6 °F 23.09 in Calm   -999.0 mph 97 % 0 in
07:09 27.3 °F 26.6 °F 23.09 in Calm   -999.0 mph 97 % 0 in
07:24 27.3 °F 26.6 °F 23.09 in Calm   -999.0 mph 97 % 0 in
07:54 28.0 °F 27.0 °F 23.07 in Calm   -999.0 mph 96 % 0 in
08:10 28.8 °F 27.5 °F 23.07 in Calm   -999.0 mph 95 % 0 in
08:25 29.1 °F 27.6 °F 23.07 in Calm   -999.0 mph 94 % 0 in
08:55 29.1 °F 27.6 °F 23.06 in Calm   -999.0 mph 94 % 0 in
09:10 29.5 °F 27.7 °F 23.06 in Calm   -999.0 mph 93 % 0 in
09:26 30.4 °F 28.6 °F 23.05 in Calm   -999.0 mph 93 % 0 in
09:41 30.2 °F 28.4 °F 23.04 in Calm   -999.0 mph 93 % 0 in
09:56 30.4 °F 28.6 °F 23.02 in Calm   -999.0 mph 93 % 0 in
10:11 29.7 °F 27.9 °F 23.02 in Calm   -999.0 mph 93 % 0 in
10:27 30.0 °F 28.0 °F 23.00 in Calm   -999.0 mph 92 % 0 in
10:42 30.4 °F 28.4 °F 22.99 in Calm   -999.0 mph 92 % 0 in
10:57 31.1 °F 28.8 °F 22.98 in Calm   -999.0 mph 91 % 0 in
11:12 30.6 °F 28.6 °F 22.97 in Calm   -999.0 mph 92 % 0 in
11:27 31.6 °F 29.3 °F 22.94 in Calm   -999.0 mph 91 % 0 in
11:43 30.7 °F 28.7 °F 22.95 in Calm   -999.0 mph 92 % 0 in
11:58 29.5 °F 28.2 °F 22.95 in Calm   -999.0 mph 95 % 0 in
12:13 29.3 °F 28.6 °F 22.92 in Calm   -999.0 mph 97 % 0 in
12:28 28.9 °F 27.9 °F 22.89 in Calm   -999.0 mph 96 % 0 in
12:43 28.8 °F 28.1 °F 22.89 in Calm   -999.0 mph 97 % 0 in
12:59 28.6 °F 27.9 °F 22.86 in Calm   -999.0 mph 97 % 0 in
13:14 28.4 °F 27.7 °F 22.86 in Calm   -999.0 mph 97 % 0 in
13:29 28.8 °F 28.3 °F 22.83 in Calm   -999.0 mph 98 % 0 in
13:45 28.8 °F 28.3 °F 22.84 in Calm   -999.0 mph 98 % 0 in
14:00 29.5 °F 29.0 °F 22.83 in Calm   -999.0 mph 98 % 0 in
14:15 30.6 °F 30.4 °F 22.85 in Calm   -999.0 mph 99 % 0 in
14:31 31.1 °F 30.9 °F 22.87 in Calm   -999.0 mph 99 % 0 in
14:46 31.3 °F 31.1 °F 22.87 in Calm   -999.0 mph 99 % 0 in
15:01 31.1 °F 30.9 °F 22.87 in Calm   -999.0 mph 99 % 0 in
15:16 31.5 °F 31.3 °F 22.85 in Calm   -999.0 mph 99 % 0 in
15:31 29.5 °F 29.3 °F 22.89 in Calm   -999.0 mph 99 % 0 in
15:47 29.3 °F 28.8 °F 22.89 in Calm   -999.0 mph 98 % 0 in
16:02 29.7 °F 29.0 °F 22.88 in Calm   -999.0 mph 97 % 0 in
16:18 29.5 °F 29.0 °F 22.86 in Calm   -999.0 mph 98 % 0 in
16:33 29.1 °F 28.6 °F 22.85 in Calm   -999.0 mph 98 % 0 in
16:48 29.5 °F 29.0 °F 22.85 in Calm   -999.0 mph 98 % 0 in
17:03 29.5 °F 29.3 °F 22.86 in Calm   -999.0 mph 99 % 0 in
17:18 29.5 °F 29.3 °F 22.86 in Calm   -999.0 mph 99 % 0 in
17:34 29.3 °F 29.1 °F 22.86 in Calm   -999.0 mph 99 % 0 in
17:49 28.9 °F 28.7 °F 22.88 in Calm   -999.0 mph 99 % 0 in
18:04 28.4 °F 27.9 °F 22.88 in Calm   -999.0 mph 98 % 0 in
18:19 28.8 °F 28.6 °F 22.87 in Calm   -999.0 mph 99 % 0 in
18:34 29.3 °F 29.1 °F 22.87 in Calm   -999.0 mph 99 % 0 in
18:50 29.5 °F 29.3 °F 22.87 in Calm   -999.0 mph 99 % 0 in
19:05 29.3 °F 29.1 °F 22.88 in Calm   -999.0 mph 99 % 0 in
19:20 28.9 °F 28.7 °F 22.89 in Calm   -999.0 mph 99 % 0 in
19:35 28.8 °F 28.3 °F 22.89 in Calm   -999.0 mph 98 % 0 in
19:50 28.4 °F 27.7 °F 22.89 in Calm   -999.0 mph 97 % 0 in
20:06 28.2 °F 27.5 °F 22.90 in Calm   -999.0 mph 97 % 0 in
20:21 28.0 °F 27.3 °F 22.90 in Calm   -999.0 mph 97 % 0 in
20:36 28.0 °F 27.3 °F 22.90 in Calm   -999.0 mph 97 % 0 in
20:51 27.9 °F 27.2 °F 22.91 in Calm   -999.0 mph 97 % 0 in
21:07 27.7 °F 27.0 °F 22.91 in Calm   -999.0 mph 97 % 0 in
21:22 27.5 °F 26.8 °F 22.91 in Calm   -999.0 mph 97 % 0 in
21:37 27.5 °F 26.8 °F 22.91 in Calm   -999.0 mph 97 % 0 in
21:52 27.5 °F 26.8 °F 22.92 in Calm   -999.0 mph 97 % 0 in
22:07 27.5 °F 26.5 °F 22.93 in Calm   -999.0 mph 96 % 0 in
22:23 27.1 °F 25.9 °F 22.93 in Calm   -999.0 mph 95 % 0 in
22:38 27.1 °F 25.6 °F 22.93 in Calm   -999.0 mph 94 % 0 in
22:53 26.8 °F 25.6 °F 22.92 in Calm   -999.0 mph 95 % 0 in
23:08 26.8 °F 26.1 °F 22.92 in Calm   -999.0 mph 97 % 0 in
23:23 27.0 °F 26.3 °F 22.93 in Calm   -999.0 mph 97 % 0 in
23:39 27.0 °F 25.2 °F 22.92 in Calm   -999.0 mph 93 % 0 in
23:54 26.8 °F 25.6 °F 22.92 in Calm   -999.0 mph 95 % 0 in
Big Bear CA Weather
Compliments of Weather Underground - 1.5 mb